Relevés horaires Chievres (Belgique)


Relevés horaires à Chievres - Mercredi 09 Mars 2022
Heure UTC1 Température [°C] Vent [km/h] Hum. [%] Pres.4 [hPa] Visi. [Km] Nébu. [octa] Préc.5 [mm] Cond.
2m. Res. Ros. Dir.2 Vit. Moy. Raf.3
23:00 7.1 6.3 -0.9 SE 5.6 -- 9.3 57 1022.2(0.5/3h) 15 -- -- --
22:00 7.5 6.7 -0.6 SE 5.6 -- 7.4 56 1022.2(0.7/3h) 14 -- -- --
21:00 8.1 7.4 1.0 SE 5.6 -- 9.3 61 1021.7(0.7/3h) 14 -- -- --
20:00 7.9 7.2 2.1 SSE 5.6 -- 5.6 67 1021.7(0.9/3h) 15 -- -- --
19:00 7.9 7.9 2.7 NNO 1.9 -- 5.6 70 1021.5(0.8/3h) 18 -- -- --
18:00 9.7 9.7 3.6 SE 3.7 -- 11.1 66 1021(0.2/3h) 19 -- -- --
17:00 12.5 12.5 4.0 SSE 3.7 -- 9.3 56 1020.6(-0.1/3h) 20 -- -- --
16:00 14.1 14.1 4.0 S 5.6 -- 9.3 51 1020.5(-0.5/3h) 20 -- -- --
15:00 14.3 14.3 3.7 SSE 5.6 -- 11.1 49 1020.5(-0.7/3h) 17 -- -- --
14:00 14.6 14.6 3.6 S 3.7 -- 9.3 48 1020.7(-0.7/3h) 19 -- -- --
13:00 13.8 13.8 2.9 S 5.6 -- 11.1 48 1021.1(-0.3/3h) 19 -- -- --
12:00 13.1 12.8 2.3 SSO 7.4 -- 11.1 48 1021.2(0.0/3h) 20 -- -- --
11:00 12.0 12.0 0.3 S 3.7 -- 7.4 45 1021.5(0.3/3h) 14 -- -- --
10:00 9.1 9.1 -1.2 SSE 3.7 -- 9.3 48 1021.5(0.5/3h) 15 -- -- --
09:00 6.9 6.9 -2.7 SSE 3.7 -- 9.3 50 1021.5(0.7/3h) 14 -- -- --
08:00 5.0 5.0 -4.0 SSE 3.7 -- 7.4 52 1021.3(0.8/3h) 19 -- -- --
07:00 3.0 1.6 -4.3 SSE 5.6 -- 7.4 59 1021.1(0.7/3h) 19 -- -- --
06:00 2.4 0.9 -4.8 SSE 5.6 -- 11.1 59 1020.8(0.5/3h) 18 -- -- --
05:00 2.8 2.8 -4.8 NNO 3.7 -- 5.6 57 1020.5(0.0/3h) 19 -- -- --
04:00 2.8 2.8 -5.0 SSE 3.7 -- 9.3 56 1020.2(-0.1/3h) 20 -- -- --
03:00 4.0 2.1 -5.4 SSE 7.4 -- 11.1 50 1020.2(0.1/3h) 20 -- -- --
02:00 3.3 3.3 -5.4 SE 3.7 -- 9.3 53 1020.5(0.4/3h) 20 -- -- --
01:00 3.7 3.7 -5.4 SE 3.7 -- 7.4 51 1020.5(0.4/3h) 20 -- -- --
00:00 3.2 3.2 -5.6 SSE 3.7 -- 11.1 52 1020.1(0.0/3h) 20 -- -- --

1 Coordinated Universal Time. Actuellement il est 14:00 locale et 13:00 UTC.

2 Le vent souffle depuis la direction indiquée vers la direction oposée.

3 Les rafales max. sont disponible 40 min après l'heure du relevé.

4 Pour les stations d'altitude (plus de 600m) le géopotentiel du niveau le plus proche de la pression obligatoire est indiqué.

5 Les stations disposant d'un diffuseur peuvent indiquer "trace". Cela signifie que des précipitations ont touchés le sol mais que la quantité est inférieure à 0.1 mm.

Récapitulatif de la journée
Température [°C] Vent [km/h] Ensoleillement4 [h] Precipitations totale5 [mm] Pression [Hpa]
Min1 Max.2 Moy.3 Max. Min Max.
2.1 14.7 0 11.1 0 h 0 min 0 1020.1 1022.2

1 Température minimale relevée entre 18:00 UTC la veille et 18:00 UTC le jour donné.

2 Température maximale relevée entre 06:00 UTC le jour donné et 06:00 UTC le lendemain.

3 Vent moyen de la journée basé sur les relevés horaires.

4 Ensoleillement en heures relevé entre 06:00 UTC la veille et 06:00 UTC le jour donné.

5 Précipitations totales tombées entre 06:00 UTC la jour donné et 06:00 UTC le lendemain.

Graphiques horaires